createdAt,value
2018-02-16T00:02:28.712Z,95599.97
2018-02-16T00:04:57.858Z,95600.12
2018-02-16T00:07:27.014Z,95604.44
2018-02-16T00:09:56.154Z,95603.03
2018-02-16T00:12:25.295Z,95603.37
2018-02-16T00:14:54.432Z,95606.62
2018-02-16T00:17:23.631Z,95606.41
2018-02-16T00:19:52.762Z,95612.35
2018-02-16T00:22:21.911Z,95616.77
2018-02-16T00:24:51.031Z,95618.91
2018-02-16T00:27:20.219Z,95619.91
2018-02-16T00:29:49.362Z,95626.29
2018-02-16T00:32:18.478Z,95625.42
2018-02-16T00:34:47.634Z,95626.85
2018-02-16T00:37:16.867Z,95632.13
2018-02-16T00:39:46.040Z,95630.80
2018-02-16T00:42:15.202Z,95634.47
2018-02-16T00:47:19.581Z,95632.32
2018-02-16T00:49:48.731Z,95634.53
2018-02-16T00:52:17.903Z,95638.70
2018-02-16T00:54:47.064Z,95637.42
2018-02-16T00:57:16.201Z,95633.10
2018-02-16T00:59:45.391Z,95637.56
2018-02-16T01:02:14.618Z,95638.82
2018-02-16T01:04:43.779Z,95645.42
2018-02-16T01:07:12.926Z,95645.49
2018-02-16T01:09:42.089Z,95645.05
2018-02-16T01:12:11.202Z,95645.78
2018-02-16T01:14:40.351Z,95644.73
2018-02-16T01:17:09.533Z,95647.64
2018-02-16T01:19:38.681Z,95637.21
2018-02-16T01:22:07.808Z,95639.20
2018-02-16T01:24:36.948Z,95647.48
2018-02-16T01:27:06.091Z,95651.39
2018-02-16T01:29:35.242Z,95642.41
2018-02-16T01:32:04.362Z,95645.98
2018-02-16T01:34:37.956Z,95644.70
2018-02-16T01:37:07.109Z,95649.12
2018-02-16T01:39:36.260Z,95650.84
2018-02-16T01:42:05.387Z,95653.86
2018-02-16T01:44:34.612Z,95661.41
2018-02-16T01:47:03.782Z,95661.06
2018-02-16T01:49:45.735Z,95670.47
2018-02-16T01:52:14.882Z,95672.20
2018-02-16T01:54:44.038Z,95674.83
2018-02-16T01:57:13.193Z,95676.97
2018-02-16T01:59:42.342Z,95667.45
2018-02-16T02:02:11.457Z,95670.20
2018-02-16T02:04:40.607Z,95674.47
2018-02-16T02:07:09.777Z,95666.13
2018-02-16T02:09:38.923Z,95672.84
2018-02-16T02:12:07.634Z,95684.46
2018-02-16T02:14:36.248Z,95694.91
2018-02-16T02:17:04.905Z,95696.20
2018-02-16T02:19:33.575Z,95699.36
2018-02-16T02:22:02.169Z,95692.83
2018-02-16T02:24:30.847Z,95698.41
2018-02-16T02:26:59.470Z,95699.01
2018-02-16T02:29:28.133Z,95699.50
2018-02-16T02:31:56.746Z,95695.19
2018-02-16T02:34:25.342Z,95691.95
2018-02-16T02:36:53.956Z,95695.00
2018-02-16T02:39:22.577Z,95700.72
2018-02-16T02:41:51.294Z,95709.19
2018-02-16T02:44:19.881Z,95712.81
2018-02-16T02:46:48.489Z,95715.05
2018-02-16T02:49:17.133Z,95714.12
2018-02-16T02:51:45.728Z,95719.72
2018-02-16T02:54:14.351Z,95723.14
2018-02-16T02:56:42.966Z,95731.20
2018-02-16T02:59:11.612Z,95736.69
2018-02-16T03:01:40.238Z,95736.20
2018-02-16T03:04:08.880Z,95740.93
2018-02-16T03:06:37.501Z,95745.61
2018-02-16T03:09:06.158Z,95753.71
2018-02-16T03:11:34.784Z,95762.22
2018-02-16T03:14:03.492Z,95764.06
2018-02-16T03:16:32.114Z,95777.92
2018-02-16T03:19:00.764Z,95784.40
2018-02-16T03:21:30.282Z,95795.45
2018-02-16T03:23:58.900Z,95800.53
2018-02-16T03:26:27.512Z,95807.55
2018-02-16T03:28:56.173Z,95816.09
2018-02-16T03:31:24.763Z,95814.00
2018-02-16T03:33:53.437Z,95821.48
2018-02-16T03:36:22.049Z,95824.02
2018-02-16T03:38:50.809Z,95827.14
2018-02-16T03:41:19.420Z,95832.28
2018-02-16T03:43:48.009Z,95840.27
2018-02-16T03:46:16.624Z,95840.64
2018-02-16T03:48:45.904Z,95852.24
2018-02-16T03:51:14.546Z,95857.04
2018-02-16T03:53:43.165Z,95864.02
2018-02-16T03:56:12.862Z,95869.86
2018-02-16T03:58:41.477Z,95872.37
2018-02-16T04:01:10.209Z,95876.61
2018-02-16T04:03:38.838Z,95879.28
2018-02-16T04:06:07.457Z,95882.04
2018-02-16T04:08:36.073Z,95888.32
2018-02-16T04:11:04.902Z,95888.06
2018-02-16T04:13:33.609Z,95895.30
2018-02-16T04:16:02.200Z,95898.98
2018-02-16T04:18:30.932Z,95899.77
2018-02-16T04:20:59.545Z,95898.27
2018-02-16T04:23:28.162Z,95902.31
2018-02-16T04:25:56.778Z,95908.09
2018-02-16T04:28:25.390Z,95912.01
2018-02-16T04:30:54.053Z,95912.08
2018-02-16T04:33:23.683Z,95914.23
2018-02-16T04:35:52.305Z,95907.14
2018-02-16T04:38:21.097Z,95906.92
2018-02-16T04:40:49.718Z,95910.73
2018-02-16T04:43:18.373Z,95911.08
2018-02-16T04:45:46.992Z,95916.64
2018-02-16T04:48:15.656Z,95919.62
2018-02-16T04:50:44.253Z,95922.55
2018-02-16T04:53:12.947Z,95932.98
2018-02-16T04:55:41.583Z,95929.84
2018-02-16T04:58:10.224Z,95932.92
2018-02-16T05:00:38.858Z,95932.09
2018-02-16T05:03:07.473Z,95942.39
2018-02-16T05:05:37.069Z,95943.83
2018-02-16T05:08:05.736Z,95953.09
2018-02-16T05:10:34.361Z,95963.47
2018-02-16T05:13:02.953Z,95969.13
2018-02-16T05:15:31.569Z,95970.89
2018-02-16T05:18:00.185Z,95979.73
2018-02-16T05:20:28.779Z,95981.62
2018-02-16T05:22:57.422Z,95985.54
2018-02-16T05:25:26.053Z,95986.91
2018-02-16T05:27:54.669Z,95993.66
2018-02-16T05:30:23.345Z,96000.16
2018-02-16T05:32:51.994Z,96001.66
2018-02-16T05:35:20.592Z,96014.45
2018-02-16T05:37:49.208Z,96014.16
2018-02-16T05:40:17.871Z,96012.27
2018-02-16T05:42:46.466Z,96005.02
2018-02-16T05:45:15.085Z,96008.63
2018-02-16T05:47:43.729Z,96011.95
2018-02-16T05:50:12.350Z,96016.36
2018-02-16T05:52:41.008Z,96022.66
2018-02-16T05:55:09.622Z,96039.38
2018-02-16T05:57:38.229Z,96041.68
2018-02-16T06:00:06.867Z,96041.52
2018-02-16T06:02:36.417Z,96044.00
2018-02-16T06:05:05.038Z,96046.44
2018-02-16T06:07:33.711Z,96046.63
2018-02-16T06:10:02.396Z,96055.58
2018-02-16T06:12:30.987Z,96064.34
2018-02-16T06:14:59.797Z,96068.44
2018-02-16T06:17:28.412Z,96070.38
2018-02-16T06:19:57.053Z,96073.59
2018-02-16T06:22:25.669Z,96075.21
2018-02-16T06:24:54.262Z,96077.80
2018-02-16T06:27:22.886Z,96086.54
2018-02-16T06:29:51.500Z,96087.20
2018-02-16T06:32:20.121Z,96094.73
2018-02-16T06:34:48.885Z,96101.49
2018-02-16T06:37:17.479Z,96110.70
2018-02-16T06:39:46.089Z,96110.61
2018-02-16T06:42:14.681Z,96113.47
2018-02-16T06:44:43.301Z,96122.05
2018-02-16T06:47:11.950Z,96127.92
2018-02-16T06:49:40.630Z,96130.27
2018-02-16T06:52:09.281Z,96140.68
2018-02-16T06:54:37.905Z,96140.39
2018-02-16T06:57:06.558Z,96141.64
2018-02-16T06:59:35.189Z,96145.25
2018-02-16T07:02:03.833Z,96156.75
2018-02-16T07:04:32.477Z,96164.63
2018-02-16T07:07:01.129Z,96170.83
2018-02-16T07:09:29.760Z,96175.44
2018-02-16T07:11:58.357Z,96173.46
2018-02-16T07:14:26.977Z,96181.09
2018-02-16T07:16:55.657Z,96176.91
2018-02-16T07:19:24.302Z,96167.72
2018-02-16T07:21:52.918Z,96173.92
2018-02-16T07:24:21.603Z,96186.61
2018-02-16T07:26:50.993Z,96179.18
2018-02-16T07:29:19.630Z,96178.77
2018-02-16T07:31:48.258Z,96174.27
2018-02-16T07:34:16.902Z,96172.02
2018-02-16T07:36:46.524Z,96178.30
2018-02-16T07:39:15.301Z,96190.31
2018-02-16T07:41:43.897Z,96193.47
2018-02-16T07:44:12.554Z,96189.68
2018-02-16T07:46:41.178Z,96208.05
2018-02-16T07:49:09.822Z,96199.55
2018-02-16T07:51:38.438Z,96202.38
2018-02-16T07:54:07.076Z,96205.00
2018-02-16T07:56:35.689Z,96211.64
2018-02-16T07:59:04.385Z,96214.30
2018-02-16T08:01:32.997Z,96216.65
2018-02-16T08:04:01.633Z,96212.13
2018-02-16T08:06:30.395Z,96213.91
2018-02-16T08:08:59.031Z,96215.36
2018-02-16T08:11:27.838Z,96219.19
2018-02-16T08:13:57.261Z,96227.39
2018-02-16T08:16:25.961Z,96224.05
2018-02-16T08:18:54.576Z,96228.44
2018-02-16T08:21:23.186Z,96235.95
2018-02-16T08:23:56.116Z,96242.23
2018-02-16T08:26:25.218Z,96246.88
2018-02-16T08:28:53.920Z,96255.09
2018-02-16T08:31:22.550Z,96253.01
2018-02-16T08:33:51.746Z,96258.37
2018-02-16T08:36:20.460Z,96260.59
2018-02-16T08:38:49.257Z,96255.59
2018-02-16T08:41:17.943Z,96258.81
2018-02-16T08:43:46.762Z,96257.80
2018-02-16T08:46:15.788Z,96258.32
2018-02-16T08:48:44.768Z,96267.47
2018-02-16T08:51:13.782Z,96273.31
2018-02-16T08:53:42.477Z,96274.33
2018-02-16T08:56:11.110Z,96270.31
2018-02-16T08:58:39.700Z,96286.73
2018-02-16T09:01:08.402Z,96286.39
2018-02-16T09:03:36.994Z,96279.13
2018-02-16T09:06:19.418Z,96280.29
2018-02-16T09:08:48.897Z,96288.05
2018-02-16T09:11:17.562Z,96291.43
2018-02-16T09:13:46.175Z,96289.98
2018-02-16T09:16:14.767Z,96285.35
2018-02-16T09:18:43.377Z,96283.98
2018-02-16T09:21:17.409Z,96280.00
2018-02-16T09:23:46.638Z,96288.83
2018-02-16T09:26:15.385Z,96294.27
2018-02-16T09:28:44.018Z,96294.99
2018-02-16T09:31:12.638Z,96289.02
2018-02-16T09:33:42.021Z,96286.47
2018-02-16T09:36:11.787Z,96290.75
2018-02-16T09:38:40.401Z,96290.86
2018-02-16T09:41:09.038Z,96286.57
2018-02-16T09:43:37.639Z,96285.57
2018-02-16T09:46:06.236Z,96295.94
2018-02-16T09:48:34.917Z,96294.60
2018-02-16T09:51:03.573Z,96301.95
2018-02-16T09:53:32.173Z,96306.41
2018-02-16T09:56:00.793Z,96308.52
2018-02-16T09:58:29.460Z,96315.64
2018-02-16T10:00:58.138Z,96319.55
2018-02-16T10:03:27.418Z,96320.59
2018-02-16T10:05:56.019Z,96333.53
2018-02-16T10:08:24.663Z,96338.82
2018-02-16T10:10:53.290Z,96335.62
2018-02-16T10:13:21.891Z,96333.00
2018-02-16T10:15:50.501Z,96332.40
2018-02-16T10:18:19.098Z,96339.41
2018-02-16T10:20:48.758Z,96331.48
2018-02-16T10:23:17.829Z,96334.16
2018-02-16T10:25:46.441Z,96332.22
2018-02-16T10:28:19.048Z,96331.86
2018-02-16T10:30:52.564Z,96340.46
2018-02-16T10:33:26.290Z,96333.23
2018-02-16T10:35:54.899Z,96333.50
2018-02-16T10:38:24.638Z,96332.20
2018-02-16T10:40:53.289Z,96336.34
2018-02-16T10:43:23.442Z,96337.44
2018-02-16T10:45:52.046Z,96334.95
2018-02-16T10:48:20.824Z,96339.73
2018-02-16T10:50:49.505Z,96347.69
2018-02-16T10:53:18.135Z,96343.33
2018-02-16T10:55:46.730Z,96349.42
2018-02-16T10:58:16.889Z,96347.73
2018-02-16T11:00:56.815Z,96343.80
2018-02-16T11:03:31.222Z,96346.86
2018-02-16T11:06:00.374Z,96356.59
2018-02-16T11:08:34.762Z,96354.89
2018-02-16T11:11:03.442Z,96353.41
2018-02-16T11:13:32.097Z,96355.88
2018-02-16T11:16:00.697Z,96361.13
2018-02-16T11:18:29.346Z,96364.64
2018-02-16T11:20:57.978Z,96367.44
2018-02-16T11:23:26.622Z,96374.36
2018-02-16T11:25:55.218Z,96364.91
2018-02-16T11:28:24.743Z,96365.17
2018-02-16T11:30:56.386Z,96365.91
2018-02-16T11:33:25.011Z,96369.80
2018-02-16T11:35:54.558Z,96372.83
2018-02-16T11:38:24.835Z,96375.14
2018-02-16T11:40:53.498Z,96371.78
2018-02-16T11:43:23.932Z,96370.24
2018-02-16T11:45:52.538Z,96365.16
2018-02-16T11:48:23.981Z,96370.70
2018-02-16T11:50:52.595Z,96374.57
2018-02-16T11:53:21.973Z,96374.02
2018-02-16T11:55:50.632Z,96378.70
2018-02-16T11:58:19.305Z,96382.31
2018-02-16T12:00:47.946Z,96378.67
2018-02-16T12:03:16.628Z,96376.67
2018-02-16T12:05:57.496Z,96375.09
2018-02-16T12:08:26.931Z,96377.73
2018-02-16T12:10:55.657Z,96376.61
2018-02-16T12:13:24.262Z,96373.94
2018-02-16T12:15:52.866Z,96377.93
2018-02-16T12:18:21.490Z,96378.31
2018-02-16T12:20:50.143Z,96375.88
2018-02-16T12:23:18.784Z,96365.23
2018-02-16T12:25:47.394Z,96360.84
2018-02-16T12:28:16.008Z,96349.92
2018-02-16T12:30:44.645Z,96354.80
2018-02-16T12:33:13.262Z,96352.64
2018-02-16T12:35:41.861Z,96355.98
2018-02-16T12:38:10.528Z,96348.87
2018-02-16T12:40:39.137Z,96344.78
2018-02-16T12:43:07.750Z,96341.30
2018-02-16T12:45:36.358Z,96342.22
2018-02-16T12:48:04.989Z,96343.22
2018-02-16T12:50:33.669Z,96345.11
2018-02-16T12:53:02.309Z,96343.58
2018-02-16T12:55:30.926Z,96342.41
2018-02-16T12:57:59.555Z,96339.67
2018-02-16T13:00:28.672Z,96342.68
2018-02-16T13:02:57.394Z,96339.78
2018-02-16T13:05:26.002Z,96339.95
2018-02-16T13:07:54.616Z,96341.13
2018-02-16T13:10:23.253Z,96337.70
2018-02-16T13:12:51.871Z,96339.77
2018-02-16T13:15:20.489Z,96342.52
2018-02-16T13:17:49.106Z,96339.82
2018-02-16T13:20:17.746Z,96344.97
2018-02-16T13:22:46.407Z,96345.14
2018-02-16T13:25:15.003Z,96345.70
2018-02-16T13:27:43.620Z,96339.78
2018-02-16T13:30:18.288Z,96340.45
2018-02-16T13:32:46.932Z,96346.86
2018-02-16T13:35:15.692Z,96349.97
2018-02-16T13:37:44.305Z,96352.47
2018-02-16T13:40:12.958Z,96351.86
2018-02-16T13:42:41.566Z,96354.58
2018-02-16T13:45:10.180Z,96353.95
2018-02-16T13:47:38.836Z,96356.23
2018-02-16T13:50:07.473Z,96365.06
2018-02-16T13:52:36.077Z,96366.30
2018-02-16T13:55:04.736Z,96356.91
2018-02-16T13:57:33.346Z,96356.17
2018-02-16T14:00:01.969Z,96359.52
2018-02-16T14:02:30.603Z,96358.39
2018-02-16T14:05:09.131Z,96358.33
2018-02-16T14:07:37.738Z,96361.84
2018-02-16T14:10:06.366Z,96357.39
2018-02-16T14:12:34.982Z,96353.98
2018-02-16T14:15:04.593Z,96356.56
2018-02-16T14:17:33.217Z,96356.37
2018-02-16T14:20:01.838Z,96358.09
2018-02-16T14:22:30.469Z,96354.83
2018-02-16T14:24:59.092Z,96359.89
2018-02-16T14:27:27.710Z,96356.02
2018-02-16T14:29:56.322Z,96355.26
2018-02-16T14:32:24.942Z,96351.06
2018-02-16T14:34:54.192Z,96354.27
2018-02-16T14:37:22.825Z,96352.56
2018-02-16T14:39:52.776Z,96352.75
2018-02-16T14:42:21.472Z,96356.01
2018-02-16T14:44:50.739Z,96356.74
2018-02-16T14:47:19.445Z,96357.91
2018-02-16T14:49:48.196Z,96361.16
2018-02-16T14:52:16.807Z,96358.19
2018-02-16T14:54:49.653Z,96355.38
2018-02-16T14:57:22.177Z,96353.95
2018-02-16T14:59:55.443Z,96360.73
2018-02-16T15:02:27.825Z,96357.41
2018-02-16T15:04:57.913Z,96355.08
2018-02-16T15:07:26.529Z,96359.08
2018-02-16T15:09:55.180Z,96350.16
2018-02-16T15:12:24.159Z,96349.36
2018-02-16T15:14:52.781Z,96355.75
2018-02-16T15:17:22.876Z,96354.00
2018-02-16T15:19:51.529Z,96356.61
2018-02-16T15:22:20.360Z,96362.81
2018-02-16T15:24:49.130Z,96361.84
2018-02-16T15:27:17.755Z,96361.98
2018-02-16T15:29:47.037Z,96360.07
2018-02-16T15:32:15.714Z,96363.89
2018-02-16T15:34:44.393Z,96369.95
2018-02-16T15:37:12.982Z,96371.96
2018-02-16T15:39:41.601Z,96367.54
2018-02-16T15:42:10.252Z,96366.16
2018-02-16T15:44:38.867Z,96369.34
2018-02-16T15:47:07.493Z,96364.03
2018-02-16T15:49:36.106Z,96367.45
2018-02-16T15:52:04.737Z,96363.63
2018-02-16T15:54:33.344Z,96365.75
2018-02-16T15:57:01.986Z,96363.67
2018-02-16T15:59:30.674Z,96369.70
2018-02-16T16:01:59.290Z,96367.88
2018-02-16T16:04:27.910Z,96367.17
2018-02-16T16:06:56.526Z,96370.31
2018-02-16T16:09:25.932Z,96374.14
2018-02-16T16:12:00.861Z,96368.70
2018-02-16T16:14:29.480Z,96372.97
2018-02-16T16:16:58.093Z,96369.98
2018-02-16T16:19:26.699Z,96371.61
2018-02-16T16:21:55.336Z,96370.58
2018-02-16T16:24:24.445Z,96365.18
2018-02-16T16:26:53.058Z,96362.60
2018-02-16T16:29:23.043Z,96361.09
2018-02-16T16:31:51.689Z,96360.46
2018-02-16T16:34:20.612Z,96360.69
2018-02-16T16:36:49.307Z,96358.75
2018-02-16T16:39:17.943Z,96364.00
2018-02-16T16:41:46.588Z,96365.22
2018-02-16T16:44:15.208Z,96368.77
2018-02-16T16:46:43.826Z,96373.34
2018-02-16T16:49:12.453Z,96373.37
2018-02-16T16:51:41.078Z,96371.66
2018-02-16T16:54:09.696Z,96373.19
2018-02-16T16:56:38.326Z,96377.53
2018-02-16T16:59:06.944Z,96377.38
2018-02-16T17:01:35.557Z,96379.90
2018-02-16T17:04:04.198Z,96375.91
2018-02-16T17:06:32.829Z,96372.55
2018-02-16T17:09:01.474Z,96376.02
2018-02-16T17:11:30.121Z,96379.53
2018-02-16T17:13:58.759Z,96380.02
2018-02-16T17:16:27.362Z,96382.45
2018-02-16T17:18:56.026Z,96384.22
2018-02-16T17:21:24.638Z,96380.20
2018-02-16T17:23:53.266Z,96385.27
2018-02-16T17:26:21.916Z,96380.90
2018-02-16T17:28:50.643Z,96383.27
2018-02-16T17:31:19.547Z,96381.09
2018-02-16T17:33:48.170Z,96380.19
2018-02-16T17:36:18.231Z,96377.92
2018-02-16T17:38:46.898Z,96382.19
2018-02-16T17:41:15.559Z,96385.11
2018-02-16T17:43:44.192Z,96372.34
2018-02-16T17:46:12.854Z,96369.86
2018-02-16T17:48:41.461Z,96366.19
2018-02-16T17:51:10.074Z,96371.23
2018-02-16T17:53:38.689Z,96366.72
2018-02-16T17:56:07.347Z,96365.72
2018-02-16T17:58:35.969Z,96367.53
2018-02-16T18:01:04.633Z,96367.84
2018-02-16T18:03:33.255Z,96364.02
2018-02-16T18:06:01.886Z,96366.34
2018-02-16T18:08:30.516Z,96371.09
2018-02-16T18:10:59.194Z,96385.49
2018-02-16T18:13:29.016Z,96387.92
2018-02-16T18:15:57.618Z,96396.73
2018-02-16T18:18:35.405Z,96393.72
2018-02-16T18:21:04.029Z,96395.82
2018-02-16T18:23:32.687Z,96394.95
2018-02-16T18:26:01.276Z,96392.42
2018-02-16T18:28:31.054Z,96401.49
2018-02-16T18:30:59.670Z,96395.39
2018-02-16T18:33:29.621Z,96387.77
2018-02-16T18:35:58.213Z,96388.22
2018-02-16T18:38:28.311Z,96379.23
2018-02-16T18:40:56.917Z,96381.98
2018-02-16T18:43:25.814Z,96382.59
2018-02-16T18:45:54.537Z,96383.32
2018-02-16T18:48:23.191Z,96381.98
2018-02-16T18:50:51.987Z,96381.29
2018-02-16T18:53:21.216Z,96381.73
2018-02-16T18:55:49.880Z,96382.36
2018-02-16T18:58:18.650Z,96380.55
2018-02-16T19:00:47.509Z,96375.98
2018-02-16T19:03:16.134Z,96372.05
2018-02-16T19:05:44.733Z,96369.78
2018-02-16T19:08:13.345Z,96365.83
2018-02-16T19:10:41.995Z,96366.58
2018-02-16T19:13:11.648Z,96369.34
2018-02-16T19:15:41.095Z,96363.34
2018-02-16T19:18:09.812Z,96360.14
2018-02-16T19:20:38.711Z,96354.04
2018-02-16T19:23:07.365Z,96354.40
2018-02-16T19:25:36.345Z,96357.07
2018-02-16T19:28:04.993Z,96350.75
2018-02-16T19:30:33.619Z,96348.91
2018-02-16T19:33:02.262Z,96346.80
2018-02-16T19:35:30.936Z,96350.67
2018-02-16T19:37:59.972Z,96348.44
2018-02-16T19:40:28.607Z,96346.64
2018-02-16T19:43:01.647Z,96347.56
2018-02-16T19:45:30.261Z,96348.04
2018-02-16T19:47:59.974Z,96345.60
2018-02-16T19:50:28.623Z,96343.25
2018-02-16T19:52:58.295Z,96336.59
2018-02-16T19:55:26.914Z,96334.54
2018-02-16T19:57:55.756Z,96336.92
2018-02-16T20:00:24.381Z,96336.18
2018-02-16T20:02:53.033Z,96335.80
2018-02-16T20:05:21.758Z,96337.88
2018-02-16T20:07:50.378Z,96333.81
2018-02-16T20:10:19.289Z,96326.64
2018-02-16T20:12:47.937Z,96327.50
2018-02-16T20:15:16.604Z,96334.95
2018-02-16T20:17:45.294Z,96326.87
2018-02-16T20:20:13.967Z,96321.23
2018-02-16T20:22:42.588Z,96317.98
2018-02-16T20:25:13.174Z,96319.91
2018-02-16T20:27:41.802Z,96319.75
2018-02-16T20:30:10.494Z,96320.45
2018-02-16T20:32:39.116Z,96321.72
2018-02-16T20:35:07.709Z,96318.59
2018-02-16T20:37:36.604Z,96315.66
2018-02-16T20:40:05.302Z,96301.50
2018-02-16T20:42:33.934Z,96302.69
2018-02-16T20:45:02.590Z,96301.87
2018-02-16T20:47:31.212Z,96303.42
2018-02-16T20:50:00.130Z,96299.03
2018-02-16T20:52:28.747Z,96298.19
2018-02-16T20:54:58.358Z,96299.80
2018-02-16T20:57:26.994Z,96302.17
2018-02-16T20:59:55.733Z,96303.92
2018-02-16T21:02:24.418Z,96301.20
2018-02-16T21:04:53.034Z,96291.69
2018-02-16T21:07:22.104Z,96291.33
2018-02-16T21:09:50.767Z,96289.82
2018-02-16T21:12:19.448Z,96284.94
2018-02-16T21:14:48.102Z,96280.84
2018-02-16T21:17:16.726Z,96282.70
2018-02-16T21:19:45.402Z,96287.67
2018-02-16T21:22:14.059Z,96275.93
2018-02-16T21:24:42.698Z,96276.39
2018-02-16T21:27:11.321Z,96281.87
2018-02-16T21:29:39.969Z,96293.35
2018-02-16T21:32:08.619Z,96286.92
2018-02-16T21:34:37.235Z,96287.30
2018-02-16T21:37:05.850Z,96285.11
2018-02-16T21:39:34.941Z,96285.12
2018-02-16T21:42:03.564Z,96284.67
2018-02-16T21:44:32.187Z,96284.38
2018-02-16T21:47:00.821Z,96281.84
2018-02-16T21:49:29.447Z,96283.58
2018-02-16T21:51:59.327Z,96277.03
2018-02-16T21:54:27.950Z,96276.53
2018-02-16T21:56:58.079Z,96269.91
2018-02-16T21:59:26.711Z,96273.19
2018-02-16T22:01:55.815Z,96278.58
2018-02-16T22:04:24.517Z,96267.94
2018-02-16T22:06:53.136Z,96252.98
2018-02-16T22:09:21.725Z,96256.88
2018-02-16T22:11:50.396Z,96257.92
2018-02-16T22:14:19.044Z,96255.03
2018-02-16T22:16:47.644Z,96252.08
2018-02-16T22:19:16.272Z,96253.39
2018-02-16T22:21:44.925Z,96251.17
2018-02-16T22:24:13.698Z,96250.87
2018-02-16T22:26:42.329Z,96256.92
2018-02-16T22:29:10.973Z,96258.48
2018-02-16T22:31:39.596Z,96254.05
2018-02-16T22:34:08.214Z,96247.80
2018-02-16T22:36:36.922Z,96243.31
2018-02-16T22:39:05.566Z,96236.16
2018-02-16T22:41:34.247Z,96231.86
2018-02-16T22:44:02.865Z,96231.16
2018-02-16T22:46:31.460Z,96232.34
2018-02-16T22:49:00.106Z,96239.11
2018-02-16T22:51:29.606Z,96238.30
2018-02-16T22:53:58.234Z,96234.27
2018-02-16T22:56:27.458Z,96237.10
2018-02-16T22:58:56.097Z,96236.66
2018-02-16T23:01:24.748Z,96233.43
2018-02-16T23:03:54.281Z,96227.69
2018-02-16T23:06:22.917Z,96231.72
2018-02-16T23:08:51.547Z,96221.44
2018-02-16T23:11:20.171Z,96228.53
2018-02-16T23:13:56.712Z,96225.78
2018-02-16T23:16:25.562Z,96228.27
2018-02-16T23:18:54.272Z,96222.64
2018-02-16T23:21:22.910Z,96211.13
2018-02-16T23:23:51.534Z,96219.30
2018-02-16T23:26:20.165Z,96219.00
2018-02-16T23:28:48.786Z,96225.27
2018-02-16T23:31:17.458Z,96220.66
2018-02-16T23:33:46.083Z,96214.49
2018-02-16T23:36:14.701Z,96219.73
2018-02-16T23:38:43.329Z,96222.31
2018-02-16T23:41:11.946Z,96228.66
2018-02-16T23:43:40.493Z,96221.30
2018-02-16T23:46:09.118Z,96213.78
2018-02-16T23:48:37.741Z,96213.09
2018-02-16T23:51:06.372Z,96215.66
2018-02-16T23:53:34.997Z,96219.36
2018-02-16T23:56:08.923Z,96212.44
2018-02-16T23:58:37.617Z,96213.66
